Time;durP1;ratioP1;P1;durP2;ratioP2;P2;SDS_P1;SDS_P2;PMS_P1;PMS_P2;Temp;Humidity;BMP_temperature;BMP_pressure;BME280_temperature;BME280_humidity;BME280_pressure;Samples;Min_cycle;Max_cycle;Signal;HPM_P1;HPM_P2
2023/02/20 00:00:33;;;;;;;12.85;9.35;;;;;;;14.53;100.00;100224.75;5035878;28;20055;-75
2023/02/20 00:02:59;;;;;;;13.80;9.85;;;;;;;14.33;100.00;100220.41;5036578;28;20044;-75
2023/02/20 00:05:24;;;;;;;18.80;10.82;;;;;;;13.81;100.00;100162.75;5054655;28;20037;-76
2023/02/20 00:07:50;;;;;;;19.67;12.05;;;;;;;13.49;100.00;100160.56;5036526;28;20029;-76
2023/02/20 00:10:17;;;;;;;14.48;11.13;;;;;;;13.50;100.00;100163.97;5036716;28;20024;-75
2023/02/20 00:12:44;;;;;;;18.73;10.40;;;;;;;14.09;100.00;100200.88;5035950;28;20037;-76
2023/02/20 00:15:13;;;;;;;14.50;10.18;;;;;;;14.10;100.00;100212.78;5035947;28;20029;-75
2023/02/20 00:17:41;;;;;;;12.68;9.68;;;;;;;14.41;100.00;100195.38;5036626;28;20035;-75
2023/02/20 00:20:07;;;;;;;11.88;8.77;;;;;;;14.48;100.00;100203.63;5054413;28;20033;-76
2023/02/20 00:22:32;;;;;;;12.15;9.77;;;;;;;14.10;100.00;100156.53;5054267;28;20055;-76
2023/02/20 00:24:58;;;;;;;10.55;8.23;;;;;;;14.26;100.00;100184.88;5035962;28;20029;-76
2023/02/20 00:27:23;;;;;;;11.70;8.80;;;;;;;14.27;100.00;100204.44;5036403;28;20047;-76
2023/02/20 00:29:48;;;;;;;12.73;8.68;;;;;;;14.12;100.00;100211.00;5053914;28;20033;-76
2023/02/20 00:32:14;;;;;;;11.10;7.75;;;;;;;14.19;100.00;100180.91;5036441;28;20061;-76
2023/02/20 00:34:40;;;;;;;10.32;8.02;;;;;;;14.29;100.00;100206.09;5036067;28;20060;-76
2023/02/20 00:37:05;;;;;;;9.35;7.40;;;;;;;13.99;100.00;100153.56;5053304;28;20092;-76
2023/02/20 00:39:31;;;;;;;9.73;7.03;;;;;;;14.03;100.00;100152.53;5053568;28;20040;-76
2023/02/20 00:41:57;;;;;;;17.30;8.23;;;;;;;14.01;100.00;100161.16;5036443;28;20111;-76
2023/02/20 00:44:23;;;;;;;10.73;7.68;;;;;;;14.26;100.00;100207.91;5036167;28;20029;-76
2023/02/20 00:46:49;;;;;;;9.90;7.90;;;;;;;14.02;100.00;100158.56;5035907;28;20048;-76
2023/02/20 00:49:14;;;;;;;8.00;7.07;;;;;;;14.36;100.00;100193.91;5036104;28;20054;-76
2023/02/20 00:51:40;;;;;;;10.52;7.70;;;;;;;14.06;100.00;100170.34;5035129;28;20033;-76
2023/02/20 00:54:05;;;;;;;9.45;7.35;;;;;;;14.34;100.00;100203.34;5053127;28;20028;-76
2023/02/20 00:56:30;;;;;;;9.65;7.10;;;;;;;14.11;100.00;100188.03;5053464;28;20032;-76
2023/02/20 00:58:56;;;;;;;8.77;7.15;;;;;;;14.29;100.00;100205.25;5035621;28;20067;-76
2023/02/20 01:01:22;;;;;;;8.27;7.28;;;;;;;14.24;100.00;100225.84;5053156;28;20125;-76
2023/02/20 01:03:47;;;;;;;8.77;7.53;;;;;;;13.95;100.00;100177.56;5035894;28;20119;-76
2023/02/20 01:06:13;;;;;;;9.52;6.57;;;;;;;14.05;100.00;100183.16;5052849;28;20086;-76
2023/02/20 01:08:38;;;;;;;7.13;5.90;;;;;;;14.50;100.00;100229.97;5053671;28;20082;-76
2023/02/20 01:11:04;;;;;;;10.75;6.10;;;;;;;14.03;100.00;100173.00;5035362;28;20057;-76
2023/02/20 01:13:30;;;;;;;7.30;6.20;;;;;;;14.11;100.00;100165.00;5053037;28;20060;-76
2023/02/20 01:15:55;;;;;;;9.20;5.82;;;;;;;13.86;100.00;100147.25;5035479;28;20517;-76
2023/02/20 01:18:20;;;;;;;7.20;5.95;;;;;;;14.27;100.00;100224.91;5035244;28;20569;-76
2023/02/20 01:20:46;;;;;;;7.65;5.38;;;;;;;14.35;100.00;100226.31;5052622;28;20507;-76
2023/02/20 01:23:13;;;;;;;9.40;5.80;;;;;;;14.01;100.00;100177.34;5053554;28;20126;-75
2023/02/20 01:25:38;;;;;;;10.52;5.22;;;;;;;14.28;100.00;100226.63;5034871;28;20079;-76
2023/02/20 01:28:04;;;;;;;9.02;4.95;;;;;;;14.33;100.00;100212.75;5052287;28;20036;-75
2023/02/20 01:30:30;;;;;;;7.47;4.95;;;;;;;14.03;100.00;100177.25;5053120;28;20029;-75
2023/02/20 01:32:55;;;;;;;8.88;4.93;;;;;;;14.34;100.00;100218.69;5034932;28;20025;-75
2023/02/20 01:35:20;;;;;;;5.80;5.10;;;;;;;13.91;100.00;100161.53;5034522;28;20095;-75
2023/02/20 01:37:46;;;;;;;7.80;4.88;;;;;;;14.18;100.00;100217.59;5034903;28;20039;-76
2023/02/20 01:40:21;;;;;;;6.55;4.70;;;;;;;14.17;100.00;100226.97;5052327;28;20410;-75
2023/02/20 01:42:46;;;;;;;6.43;4.97;;;;;;;13.79;100.00;100169.66;5052266;28;20029;-75
2023/02/20 01:45:28;;;;;;;6.35;4.90;;;;;;;14.26;100.00;100229.16;5034563;28;20036;-75
2023/02/20 01:47:55;;;;;;;6.82;5.40;;;;;;;14.22;100.00;100229.38;5049532;28;20037;-75
2023/02/20 01:50:28;;;;;;;7.55;5.22;;;;;;;13.92;100.00;100206.63;5052680;28;20491;-75
2023/02/20 01:52:59;;;;;;;6.88;4.95;;;;;;;13.98;100.00;100222.63;5052291;28;20033;-75
2023/02/20 01:55:38;;;;;;;6.32;5.03;;;;;;;13.88;100.00;100225.53;5034425;28;20107;-75
2023/02/20 01:58:17;;;;;;;5.50;4.00;;;;;;;13.80;100.00;100225.00;5031070;28;20033;-75
2023/02/20 02:00:43;;;;;;;4.88;3.95;;;;;;;13.85;100.00;100225.66;5051855;28;20045;-75
2023/02/20 02:03:13;;;;;;;6.30;4.05;;;;;;;13.80;100.00;100227.56;5034636;28;20131;-75
2023/02/20 02:05:43;;;;;;;5.03;3.72;;;;;;;13.77;100.00;100239.59;5052644;28;20037;-75
2023/02/20 02:08:11;;;;;;;5.13;3.97;;;;;;;13.66;100.00;100223.84;5034822;28;20133;-76
2023/02/20 02:11:01;;;;;;;4.70;3.60;;;;;;;13.73;100.00;100232.94;5051524;28;20032;-76
2023/02/20 02:13:27;;;;;;;6.38;3.95;;;;;;;13.49;100.00;100186.13;5034476;28;20094;-76
2023/02/20 02:16:20;;;;;;;5.97;3.95;;;;;;;13.64;100.00;100235.84;5034654;28;20037;-77
2023/02/20 02:19:00;;;;;;;;;;;;;;;13.60;100.00;100244.50;5050057;28;20339;-76
2023/02/20 02:21:44;;;;;;;5.00;3.83;;;;;;;13.68;100.00;100248.44;5052409;28;20023;-77
2023/02/20 02:24:39;;;;;;;5.60;3.53;;;;;;;13.64;100.00;100257.13;5034512;28;20032;-77
2023/02/20 02:27:42;;;;;;;5.03;3.88;;;;;;;13.61;100.00;100269.13;5034432;28;20120;-76
2023/02/20 02:30:16;;;;;;;5.80;3.88;;;;;;;13.62;100.00;100278.47;5034672;28;20483;-76
2023/02/20 02:32:42;;;;;;;5.10;4.03;;;;;;;13.51;100.00;100278.84;5052161;28;20381;-77
2023/02/20 02:35:16;;;;;;;5.57;4.10;;;;;;;13.23;100.00;100233.91;5034394;28;20040;-76
2023/02/20 02:38:00;;;;;;;7.03;3.85;;;;;;;13.44;100.00;100289.34;5052227;28;20100;-76
2023/02/20 02:40:37;;;;;;;6.95;3.85;;;;;;;12.89;100.00;100239.28;5052078;28;20029;-76
2023/02/20 02:43:09;;;;;;;4.45;3.83;;;;;;;13.23;100.00;100283.22;5033912;28;20033;-77
2023/02/20 02:45:49;;;;;;;6.00;4.68;;;;;;;13.31;100.00;100276.16;5051750;28;20032;-77
2023/02/20 02:48:34;;;;;;;6.32;5.25;;;;;;;13.31;100.00;100268.50;5052111;28;20029;-77
2023/02/20 02:51:15;;;;;;;5.90;5.07;;;;;;;13.24;100.00;100253.44;5034802;28;20502;-76
2023/02/20 02:53:40;;;;;;;5.93;5.10;;;;;;;13.00;100.00;100240.59;5052116;28;20551;-77
2023/02/20 02:56:22;;;;;;;6.30;5.18;;;;;;;12.70;100.00;100215.25;5051587;28;20060;-76
2023/02/20 02:58:53;;;;;;;10.40;5.20;;;;;;;13.13;100.00;100258.09;5034150;28;20487;-76
2023/02/20 03:01:20;;;;;;;5.47;4.88;;;;;;;13.09;100.00;100261.63;5033758;28;20041;-75
2023/02/20 03:03:48;;;;;;;6.53;5.10;;;;;;;13.02;100.00;100271.16;5033306;28;20036;-76
2023/02/20 03:06:22;;;;;;;5.63;4.93;;;;;;;12.86;100.00;100267.44;5033258;28;20050;-76
2023/02/20 03:08:56;;;;;;;8.43;6.20;;;;;;;12.72;100.00;100272.16;5049812;28;20115;-76
2023/02/20 03:11:23;;;;;;;6.15;4.80;;;;;;;12.46;100.00;100205.88;5033899;28;20032;-77
2023/02/20 03:17:07;;;;;;;5.32;4.82;;;;;;;13.10;100.00;100276.03;5054546;28;20087;-76
2023/02/20 03:19:41;;;;;;;6.80;5.22;;;;;;;13.10;100.00;100242.84;5047853;28;20075;-76
2023/02/20 03:22:14;;;;;;;7.28;4.88;;;;;;;12.67;100.00;100212.81;5055720;28;20041;-76
2023/02/20 03:24:55;;;;;;;5.03;4.53;;;;;;;12.75;100.00;100224.44;5063495;28;20027;-76
2023/02/20 03:27:37;;;;;;;5.90;3.93;;;;;;;12.56;100.00;100225.91;5063686;28;20036;-78
2023/02/20 03:30:06;;;;;;;4.07;3.28;;;;;;;12.34;100.00;100214.72;5060861;28;20119;-76
2023/02/20 03:43:39;;;;;;;8.30;6.47;;;;;;;12.25;100.00;100235.41;5075242;28;20529;-75
2023/02/20 03:46:10;;;;;;;3.60;3.28;;;;;;;12.27;100.00;100228.53;5074376;28;20028;-76
2023/02/20 03:48:51;;;;;;;5.40;4.17;;;;;;;12.33;100.00;100232.63;5057690;28;20078;-76
2023/02/20 03:51:17;;;;;;;7.20;5.25;;;;;;;12.36;100.00;100260.59;5074777;28;20071;-76
2023/02/20 03:53:44;;;;;;;5.45;4.00;;;;;;;12.53;100.00;100274.47;5056436;28;20029;-76
2023/02/20 03:56:16;;;;;;;5.03;4.50;;;;;;;12.45;100.00;100290.88;5056951;28;20041;-76
2023/02/20 03:58:48;;;;;;;4.50;3.42;;;;;;;12.82;100.00;100286.28;5056789;28;20115;-76
2023/02/20 04:01:18;;;;;;;3.17;2.85;;;;;;;12.85;100.00;100288.75;5073561;28;20144;-76
2023/02/20 04:03:47;;;;;;;4.90;3.33;;;;;;;12.30;100.00;100246.28;5057202;28;20032;-75
2023/02/20 04:06:15;;;;;;;4.15;3.50;;;;;;;12.43;100.00;100300.28;5056598;28;20059;-77
2023/02/20 04:08:48;;;;;;;4.35;3.78;;;;;;;12.41;100.00;100302.91;5056839;28;20036;-76
2023/02/20 04:11:27;;;;;;;3.78;3.22;;;;;;;12.01;100.00;100236.13;5074632;28;20178;-76
2023/02/20 04:13:54;;;;;;;5.05;4.20;;;;;;;12.36;100.00;100309.03;5056463;28;20021;-76
2023/02/20 04:16:20;;;;;;;5.10;3.90;;;;;;;12.46;100.00;100307.88;5074272;28;20507;-76
2023/02/20 04:18:46;;;;;;;4.38;3.30;;;;;;;12.66;100.00;100313.16;5073953;28;21511;-76
2023/02/20 04:21:40;;;;;;;4.43;3.67;;;;;;;12.43;100.00;100320.69;5074428;28;20116;-76
2023/02/20 04:24:18;;;;;;;5.63;3.40;;;;;;;12.38;100.00;100345.50;5052199;28;20118;-77
2023/02/20 04:26:45;;;;;;;4.43;3.40;;;;;;;12.20;100.00;100352.78;5072977;28;20135;-76
2023/02/20 04:29:10;;;;;;;4.63;3.22;;;;;;;12.21;100.00;100351.09;5073304;28;20036;-76
2023/02/20 04:31:36;;;;;;;4.63;3.30;;;;;;;12.07;100.00;100351.47;5054404;28;20535;-75
2023/02/20 04:34:01;;;;;;;9.18;3.80;;;;;;;12.04;100.00;100289.56;5073585;28;20027;-74
2023/02/20 04:36:27;;;;;;;4.00;3.28;;;;;;;11.92;100.00;100366.34;5070153;28;20044;-73
2023/02/20 04:38:52;;;;;;;5.22;3.28;;;;;;;11.88;100.00;100357.97;5072128;28;20033;-74
2023/02/20 04:41:18;;;;;;;7.32;5.20;;;;;;;11.59;100.00;100329.03;5073351;28;20397;-73
2023/02/20 04:43:43;;;;;;;6.72;4.55;;;;;;;11.84;100.00;100361.47;5072338;28;20040;-71
2023/02/20 04:46:09;;;;;;;5.35;3.72;;;;;;;11.86;100.00;100325.75;5055463;28;20035;-73
2023/02/20 04:48:34;;;;;;;4.80;3.15;;;;;;;12.23;100.00;100366.31;5072999;28;20123;-73
2023/02/20 04:50:59;;;;;;;11.82;7.50;;;;;;;12.07;100.00;100371.03;5055500;28;20034;-73
2023/02/20 04:53:25;;;;;;;5.63;1.90;;;;;;;12.37;100.00;100382.06;5073005;28;20044;-73
2023/02/20 04:55:50;;;;;;;5.53;2.60;;;;;;;12.13;100.00;100319.88;5055422;28;20036;-72
2023/02/20 04:58:16;;;;;;;3.30;2.42;;;;;;;12.47;100.00;100388.56;5054487;28;20032;-74
2023/02/20 05:00:41;;;;;;;6.55;4.75;;;;;;;12.08;100.00;100339.56;5046838;28;20045;-71
2023/02/20 05:03:07;;;;;;;3.15;2.60;;;;;;;11.79;100.00;100309.81;5053071;28;20025;-73
2023/02/20 05:05:32;;;;;;;3.45;1.65;;;;;;;11.87;100.00;100338.44;5035682;28;20056;-71
2023/02/20 05:08:03;;;;;;;3.40;1.75;;;;;;;12.05;100.00;100330.28;5052869;28;20112;-71
2023/02/20 05:10:30;;;;;;;4.50;1.73;;;;;;;12.53;100.00;100396.03;5045964;28;20122;-78
2023/02/20 05:12:56;;;;;;;3.22;1.70;;;;;;;12.52;100.00;100402.84;5033381;28;20038;-74
2023/02/20 05:15:22;;;;;;;4.13;1.70;;;;;;;12.42;100.00;100408.28;5033956;28;20030;-79
2023/02/20 05:17:49;;;;;;;2.60;1.60;;;;;;;12.00;100.00;100349.16;5050593;28;20055;-78
2023/02/20 05:20:15;;;;;;;4.45;2.60;;;;;;;12.38;100.00;100420.25;5037516;28;20044;-78
2023/02/20 05:22:41;;;;;;;5.95;2.78;;;;;;;12.03;100.00;100390.66;5052126;28;20430;-84
2023/02/20 05:25:07;;;;;;;3.10;2.08;;;;;;;11.74;100.00;100347.31;5053734;28;20025;-80
2023/02/20 05:27:33;;;;;;;4.70;2.10;;;;;;;12.21;100.00;100432.66;5035203;28;20033;-80
2023/02/20 05:29:59;;;;;;;4.82;2.20;;;;;;;12.25;100.00;100430.84;5053448;28;20520;-78
2023/02/20 05:32:27;;;;;;;3.60;1.88;;;;;;;12.23;100.00;100435.16;5053257;28;20059;-78
2023/02/20 05:34:53;;;;;;;2.35;1.70;;;;;;;12.11;100.00;100373.44;5035532;28;20557;-80
2023/02/20 05:37:20;;;;;;;10.32;6.20;;;;;;;11.95;100.00;100371.34;5039139;28;20045;-78
2023/02/20 05:39:48;;;;;;;7.30;3.75;;;;;;;12.26;100.00;100435.09;5034722;28;20033;-75
2023/02/20 05:42:14;;;;;;;2.45;1.92;;;;;;;11.98;100.00;100379.75;5052268;28;20045;-73
2023/02/20 05:44:40;;;;;;;5.35;2.42;;;;;;;11.84;100.00;100378.47;5051479;28;20068;-78
2023/02/20 05:47:06;;;;;;;2.38;2.10;;;;;;;13.01;100.00;100420.91;5052420;28;20500;-77
2023/02/20 05:49:33;;;;;;;3.92;2.60;;;;;;;15.45;100.00;100449.72;5052400;28;20037;-77
2023/02/20 05:51:59;;;;;;;5.13;2.92;;;;;;;15.80;100.00;100442.34;5052499;28;20063;-77
2023/02/20 05:54:24;;;;;;;15.52;2.47;;;;;;;15.80;98.18;100450.03;5052373;28;20100;-78
2023/02/20 05:56:50;;;;;;;10.57;2.30;;;;;;;16.26;90.39;100408.69;5052054;28;20419;-77
2023/02/20 05:59:22;;;;;;;4.72;2.47;;;;;;;16.79;85.70;100404.56;5053006;28;20037;-78
2023/02/20 06:01:51;;;;;;;4.90;2.20;;;;;;;15.98;89.44;100383.41;5069201;28;20127;-76
2023/02/20 06:04:17;;;;;;;5.15;3.42;;;;;;;17.53;79.71;100405.28;5054895;28;20094;-78
2023/02/20 06:06:43;;;;;;;3.00;2.08;;;;;;;16.93;77.93;100415.00;5054777;28;20094;-78
2023/02/20 06:09:11;;;;;;;4.97;3.42;;;;;;;17.11;77.03;100478.34;5072295;28;20111;-77
2023/02/20 06:11:36;;;;;;;2.42;1.95;;;;;;;17.48;67.24;100441.47;5072636;28;20029;-76
2023/02/20 06:14:03;;;;;;;4.57;2.60;;;;;;;18.79;62.13;100455.28;5071783;28;20497;-76
2023/02/20 06:16:29;;;;;;;5.20;3.42;;;;;;;18.18;61.29;100465.34;5053993;28;20025;-77
2023/02/20 06:18:55;;;;;;;4.05;2.13;;;;;;;18.68;58.87;100521.16;5071096;28;20115;-77
2023/02/20 06:21:23;;;;;;;5.85;2.40;;;;;;;17.90;60.63;100482.28;5072571;28;20028;-77
2023/02/20 06:23:49;;;;;;;5.55;3.35;;;;;;;18.71;55.28;100529.56;5054154;28;20025;-77
2023/02/20 06:26:15;;;;;;;4.13;2.33;;;;;;;18.87;54.80;100522.69;5054305;28;20047;-77
2023/02/20 06:28:41;;;;;;;6.90;2.08;;;;;;;16.77;61.17;100485.97;5053366;28;20027;-76
2023/02/20 06:31:07;;;;;;;7.25;3.33;;;;;;;15.95;67.99;100523.75;5053948;28;20414;-75
2023/02/20 06:33:33;;;;;;;9.40;2.40;;;;;;;14.81;76.36;100522.22;5054244;28;20563;-76
2023/02/20 06:35:59;;;;;;;5.38;2.30;;;;;;;14.45;84.29;100503.91;5072124;28;20028;-76
2023/02/20 06:38:24;;;;;;;6.38;3.10;;;;;;;14.04;87.53;100480.63;5054020;28;20449;-76
2023/02/20 06:40:50;;;;;;;12.60;2.40;;;;;;;14.22;87.88;100503.00;5071940;28;20055;-76
2023/02/20 06:43:16;;;;;;;9.68;2.50;;;;;;;14.31;87.20;100500.16;5054578;28;20063;-77
2023/02/20 06:45:50;;;;;;;7.63;2.83;;;;;;;14.11;88.40;100508.47;5071955;28;20052;-76
2023/02/20 06:48:16;;;;;;;3.45;2.63;;;;;;;13.94;88.72;100447.69;5071358;28;20028;-77
2023/02/20 06:50:42;;;;;;;6.00;3.58;;;;;;;14.14;89.39;100458.97;5070985;28;20464;-77
2023/02/20 06:53:08;;;;;;;6.32;2.88;;;;;;;14.48;88.75;100513.22;5070307;28;20395;-77
2023/02/20 06:55:33;;;;;;;26.40;3.47;;;;;;;14.20;88.89;100520.94;5053982;28;20573;-76
2023/02/20 06:57:59;;;;;;;34.72;4.88;;;;;;;14.29;89.17;100535.19;5072126;28;20033;-76
2023/02/20 07:00:25;;;;;;;9.75;3.28;;;;;;;14.47;89.83;100527.72;5072037;28;20067;-76
2023/02/20 07:02:51;;;;;;;7.07;3.10;;;;;;;14.19;91.86;100490.31;5053884;28;20105;-79
2023/02/20 07:05:16;;;;;;;5.82;2.97;;;;;;;14.34;89.81;100536.69;5072001;28;20507;-78
2023/02/20 07:07:42;;;;;;;3.35;2.80;;;;;;;14.32;89.74;100506.97;5071112;28;20032;-78
2023/02/20 07:10:07;;;;;;;4.32;3.20;;;;;;;14.73;89.24;100571.16;5072065;28;20090;-78
2023/02/20 07:12:36;;;;;;;5.03;3.10;;;;;;;14.53;86.06;100519.00;5053768;28;20070;-78
2023/02/20 07:15:05;;;;;;;4.05;3.15;;;;;;;14.74;90.51;100574.53;5054291;28;20047;-79
2023/02/20 07:17:30;;;;;;;5.38;2.90;;;;;;;14.73;86.84;100580.53;5071140;28;20036;-79
2023/02/20 07:19:55;;;;;;;5.03;3.05;;;;;;;14.79;87.43;100575.22;5071688;28;20032;-79
2023/02/20 07:22:21;;;;;;;5.07;3.30;;;;;;;15.00;86.08;100564.19;5053337;28;20035;-78
2023/02/20 07:24:54;;;;;;;5.07;3.00;;;;;;;14.72;89.45;100581.41;5053934;28;20047;-78
2023/02/20 07:27:19;;;;;;;3.50;2.70;;;;;;;14.64;89.17;100530.50;5053485;28;20067;-78
2023/02/20 07:29:46;;;;;;;4.45;2.85;;;;;;;14.31;91.26;100570.06;5070992;28;20048;-77
2023/02/20 07:32:12;;;;;;;5.43;3.10;;;;;;;14.14;92.91;100522.91;5071443;28;20031;-79
2023/02/20 07:34:38;;;;;;;3.65;3.20;;;;;;;15.20;88.98;100582.22;5071754;28;20032;-79
2023/02/20 07:37:03;;;;;;;5.00;3.05;;;;;;;14.70;91.17;100588.31;5070740;28;20071;-79
2023/02/20 07:39:29;;;;;;;3.72;3.05;;;;;;;14.61;89.18;100574.13;5070742;28;20035;-78
2023/02/20 07:41:54;;;;;;;4.90;3.55;;;;;;;14.89;83.36;100522.78;5070012;28;20021;-78
2023/02/20 07:44:20;;;;;;;7.13;4.50;;;;;;;15.41;85.84;100573.72;5071183;28;20025;-79
2023/02/20 07:46:45;;;;;;;4.18;3.13;;;;;;;14.81;84.19;100582.84;5070996;28;20127;-79
2023/02/20 07:49:10;;;;;;;6.95;3.35;;;;;;;14.26;86.50;100530.97;5052688;28;20025;-79
2023/02/20 07:51:36;;;;;;;4.40;3.13;;;;;;;14.17;86.85;100531.28;5053112;28;20034;-79
2023/02/20 07:54:01;;;;;;;6.40;4.40;;;;;;;15.15;81.79;100532.88;5053651;28;20382;-80
2023/02/20 07:56:27;;;;;;;6.28;3.72;;;;;;;14.61;87.34;100589.50;5070335;28;20040;-79
2023/02/20 07:58:52;;;;;;;5.85;3.85;;;;;;;15.39;84.22;100608.81;5071087;28;20035;-79
2023/02/20 08:01:19;;;;;;;4.80;4.10;;;;;;;15.15;83.09;100545.69;5053124;28;20118;-80
2023/02/20 08:03:45;;;;;;;14.45;5.57;;;;;;;14.97;84.63;100563.47;5057022;28;20097;-79
2023/02/20 08:06:21;;;;;;;5.45;4.32;;;;;;;14.92;89.09;100616.56;5056720;28;20480;-80
2023/02/20 08:08:51;;;;;;;7.60;5.88;;;;;;;14.79;84.52;100636.66;5074663;28;20146;-79
2023/02/20 08:11:21;;;;;;;6.57;4.30;;;;;;;14.49;86.86;100583.94;5056429;28;20032;-79
2023/02/20 08:13:47;;;;;;;10.13;4.53;;;;;;;15.01;86.68;100591.47;5056243;28;20025;-79
2023/02/20 08:16:13;;;;;;;7.63;4.70;;;;;;;14.87;88.04;100621.84;5074027;28;20043;-79
2023/02/20 08:18:38;;;;;;;5.80;4.28;;;;;;;14.44;86.70;100575.59;5056205;28;20064;-80
2023/02/20 08:21:04;;;;;;;6.15;4.80;;;;;;;14.85;86.41;100626.19;5074284;28;20075;-78
2023/02/20 08:23:29;;;;;;;7.70;4.55;;;;;;;14.25;91.69;100587.28;5056252;28;20101;-78
2023/02/20 08:25:54;;;;;;;8.02;6.22;;;;;;;14.37;89.95;100589.47;5074000;28;20435;-79
2023/02/20 08:28:20;;;;;;;8.50;4.35;;;;;;;14.81;85.83;100644.28;5056729;28;20509;-78
2023/02/20 08:30:46;;;;;;;5.20;3.97;;;;;;;15.01;80.64;100647.81;5074311;28;20032;-78
2023/02/20 08:33:11;;;;;;;6.43;4.20;;;;;;;14.67;76.77;100637.06;5056304;28;20029;-79
2023/02/20 08:35:37;;;;;;;5.68;3.72;;;;;;;14.44;78.55;100606.31;5056220;28;20379;-80
2023/02/20 08:38:05;;;;;;;5.15;3.80;;;;;;;14.96;75.50;100633.47;5056360;28;20034;-80
2023/02/20 08:40:31;;;;;;;11.73;4.63;;;;;;;14.49;74.71;100615.50;5056144;28;20035;-79
2023/02/20 08:42:58;;;;;;;9.52;4.20;;;;;;;14.23;76.59;100617.19;5074191;28;20040;-79
2023/02/20 08:45:24;;;;;;;6.40;4.10;;;;;;;14.29;75.37;100610.19;5055649;28;20122;-79
2023/02/20 08:47:49;;;;;;;11.77;4.07;;;;;;;14.35;74.31;100598.94;5055852;28;20028;-79
2023/02/20 08:50:17;;;;;;;13.48;4.32;;;;;;;14.55;73.28;100578.63;5055892;28;20050;-79
2023/02/20 08:52:44;;;;;;;9.80;4.30;;;;;;;14.47;70.66;100580.59;5073826;28;20487;-79
2023/02/20 08:55:11;;;;;;;13.65;3.78;;;;;;;14.08;66.47;100512.88;5073640;28;20046;-76
2023/02/20 08:57:36;;;;;;;25.13;4.15;;;;;;;14.16;64.18;100573.13;5056106;28;20032;-81
2023/02/20 09:00:04;;;;;;;12.98;3.55;;;;;;;14.46;63.28;100566.16;5073191;28;20028;-82
2023/02/20 09:02:30;;;;;;;10.45;4.43;;;;;;;14.44;67.60;100573.06;5073381;28;20029;-79
2023/02/20 09:04:56;;;;;;;7.30;3.70;;;;;;;14.42;65.46;100521.91;5073695;28;20062;-80
2023/02/20 09:07:22;;;;;;;4.45;3.65;;;;;;;14.37;65.52;100530.66;5055561;28;20039;-82
2023/02/20 09:09:49;;;;;;;5.50;3.28;;;;;;;14.97;63.83;100583.97;5056038;28;20494;-80
2023/02/20 09:12:17;;;;;;;8.77;3.28;;;;;;;14.35;60.44;100524.75;5073759;28;20024;-78
2023/02/20 09:14:42;;;;;;;9.75;2.88;;;;;;;14.89;58.41;100583.41;5054997;28;20220;-80
2023/02/20 09:17:08;;;;;;;8.93;2.80;;;;;;;14.68;54.75;100541.47;5055377;28;20115;-78
2023/02/20 09:19:33;;;;;;;8.30;3.20;;;;;;;14.92;52.78;100591.78;5073037;28;20036;-79
2023/02/20 09:21:59;;;;;;;11.38;3.10;;;;;;;14.75;52.16;100599.25;5072893;28;20032;-78
2023/02/20 09:24:30;;;;;;;14.77;3.25;;;;;;;14.96;51.83;100590.78;5073429;28;20120;-78
2023/02/20 09:26:56;;;;;;;8.07;3.50;;;;;;;14.99;53.17;100593.25;5073604;28;20055;-79
2023/02/20 09:29:22;;;;;;;15.48;3.65;;;;;;;14.98;52.28;100573.66;5072643;28;20726;-79
2023/02/20 09:31:47;;;;;;;11.65;3.50;;;;;;;15.42;51.96;100583.13;5073215;28;20028;-77
2023/02/20 09:34:12;;;;;;;15.10;3.60;;;;;;;15.33;49.00;100595.41;5072236;28;20123;-75
2023/02/20 09:36:38;;;;;;;13.15;2.72;;;;;;;14.94;46.48;100594.28;5054986;28;20115;-77
2023/02/20 09:39:03;;;;;;;9.02;4.00;;;;;;;15.81;44.97;100596.09;5072546;28;20032;-78
2023/02/20 09:41:58;;;;;;;7.22;2.88;;;;;;;15.70;46.58;100612.81;5055297;28;20426;-77
2023/02/20 09:44:52;;;;;;;7.07;3.17;;;;;;;15.26;47.87;100591.41;5054690;28;20075;-77
2023/02/20 09:47:18;;;;;;;9.20;3.58;;;;;;;14.97;48.25;100635.16;5072455;28;20035;-77
2023/02/20 09:49:43;;;;;;;7.85;3.25;;;;;;;14.96;47.26;100567.75;5072912;28;20103;-76
2023/02/20 09:52:13;;;;;;;10.52;2.95;;;;;;;15.46;47.49;100624.84;5072587;28;20040;-77
2023/02/20 09:54:44;;;;;;;4.63;3.20;;;;;;;15.24;45.85;100590.63;5072249;28;20558;-77
2023/02/20 09:57:15;;;;;;;8.38;3.40;;;;;;;15.16;48.46;100626.78;5072178;28;20033;-77
2023/02/20 09:59:54;;;;;;;6.47;3.10;;;;;;;14.54;52.70;100584.63;5054211;28;20028;-77
2023/02/20 10:02:28;;;;;;;4.05;3.10;;;;;;;14.67;52.26;100647.31;5072115;28;20052;-77
2023/02/20 10:05:03;;;;;;;4.53;3.08;;;;;;;14.48;52.76;100584.84;5054318;28;20033;-76
2023/02/20 10:07:33;;;;;;;6.60;3.40;;;;;;;14.73;55.42;100653.06;5054176;28;20410;-76
2023/02/20 10:09:59;;;;;;;8.18;3.58;;;;;;;15.05;55.17;100669.03;5071658;28;20064;-83
2023/02/20 10:12:38;;;;;;;4.40;3.25;;;;;;;15.10;56.44;100627.00;5054605;28;20123;-80
2023/02/20 10:15:25;;;;;;;5.53;3.58;;;;;;;15.23;56.04;100679.44;5072454;28;20075;-81
2023/02/20 10:18:29;;;;;;;5.15;3.60;;;;;;;15.03;55.73;100684.47;5072440;28;20035;-79
2023/02/20 10:21:11;;;;;;;7.72;5.00;;;;;;;14.34;55.03;100612.63;5017435;28;20064;-79
2023/02/20 10:23:49;;;;;;;4.38;2.53;;;;;;;15.14;53.29;100691.75;5072071;28;20025;-77
2023/02/20 10:26:20;;;;;;;3.72;2.25;;;;;;;14.71;50.83;100610.47;5071920;28;20036;-76
2023/02/20 10:28:50;;;;;;;8.83;2.77;;;;;;;14.84;51.46;100665.47;5054416;28;20033;-79
2023/02/20 10:31:32;;;;;;;7.20;2.47;;;;;;;15.22;46.51;100712.81;5072092;28;20115;-78
2023/02/20 10:34:08;;;;;;;3.85;2.92;;;;;;;15.40;44.41;100705.31;5071947;28;20079;-79
2023/02/20 10:36:40;;;;;;;6.38;3.25;;;;;;;15.31;45.16;100692.00;5053655;28;20102;-77
2023/02/20 10:39:08;;;;;;;7.22;3.35;;;;;;;14.90;43.36;100685.75;5082434;28;20029;-78
2023/02/20 10:42:07;;;;;;;3.15;2.38;;;;;;;14.94;42.90;100674.50;5071801;28;20032;-81
2023/02/20 10:44:40;;;;;;;5.47;3.42;;;;;;;14.98;42.97;100649.63;5070780;28;20503;-75
2023/02/20 10:47:14;;;;;;;5.00;3.30;;;;;;;14.94;45.98;100671.09;5072632;28;20127;-79
2023/02/20 10:49:52;;;;;;;3.03;2.60;;;;;;;15.13;42.84;100672.16;5054223;28;20115;-80
2023/02/20 10:52:49;;;;;;;6.20;2.80;;;;;;;14.92;44.03;100688.25;5053470;28;20517;-81
2023/02/20 10:55:32;;;;;;;4.63;2.70;;;;;;;15.07;42.79;100674.94;5071782;28;20036;-80
2023/02/20 10:58:12;;;;;;;5.97;3.45;;;;;;;15.22;40.41;100657.28;5071910;28;20035;-78
2023/02/20 11:00:43;;;;;;;5.10;2.95;;;;;;;15.32;42.19;100676.56;5071270;28;20040;-77
2023/02/20 11:03:14;;;;;;;5.05;2.60;;;;;;;15.37;40.77;100664.41;5053220;28;20036;-77
2023/02/20 11:05:45;;;;;;;7.20;3.20;;;;;;;15.35;41.09;100673.06;5053350;28;20505;-79
2023/02/20 11:08:11;;;;;;;4.03;2.60;;;;;;;15.58;40.08;100685.91;5053470;28;20063;-78
2023/02/20 11:10:37;;;;;;;5.60;2.33;;;;;;;15.35;41.94;100681.56;5070961;28;20125;-77
2023/02/20 11:13:04;;;;;;;4.82;2.40;;;;;;;15.48;40.80;100635.88;5053507;28;20483;-78
2023/02/20 11:15:33;;;;;;;3.25;2.15;;;;;;;15.37;41.58;100631.09;5071369;28;20556;-80
2023/02/20 11:17:59;;;;;;;5.43;2.40;;;;;;;16.41;38.98;100682.63;5053960;28;20129;-78
2023/02/20 11:20:31;;;;;;;3.10;2.72;;;;;;;16.46;38.41;100666.13;5071471;28;20111;-79
2023/02/20 11:22:57;;;;;;;7.50;2.75;;;;;;;15.94;37.86;100683.66;5071700;28;20086;-82
2023/02/20 11:25:27;;;;;;;2.65;2.30;;;;;;;16.07;37.88;100684.84;5053844;28;20037;-80
2023/02/20 11:28:16;;;;;;;4.50;2.50;;;;;;;16.57;36.13;100670.88;5071551;28;20025;-80
2023/02/20 11:30:45;;;;;;;4.38;2.50;;;;;;;16.03;37.10;100676.44;5059331;28;20041;-80
2023/02/20 11:33:24;;;;;;;2.78;1.60;;;;;;;16.17;37.46;100619.47;5071390;28;20039;-79
2023/02/20 11:35:54;;;;;;;3.38;1.90;;;;;;;16.45;37.50;100661.91;5071103;28;20028;-82
2023/02/20 11:38:28;;;;;;;2.30;1.80;;;;;;;15.65;39.30;100681.38;5057198;28;20032;-81
2023/02/20 11:40:55;;;;;;;3.83;1.88;;;;;;;16.05;38.68;100676.38;5056946;28;20082;-82
2023/02/20 11:43:36;;;;;;;5.32;2.75;;;;;;;16.25;38.86;100630.25;5057612;28;20025;-80